Time;durP1;ratioP1;P1;durP2;ratioP2;P2;SDS_P1;SDS_P2;PMS_P1;PMS_P2;Temp;Humidity;BMP_temperature;BMP_pressure;BME280_temperature;BME280_humidity;BME280_pressure;Samples;Min_cycle;Max_cycle;Signal;HPM_P1;HPM_P2
2022/07/30 00:00:15;;;;;;;5.00;4.60;;;;;;;;;;5044199;28;20037;-60
2022/07/30 00:02:40;;;;;;;4.32;4.03;;;;;;;;;;5043093;28;20132;-61
2022/07/30 00:05:06;;;;;;;4.60;4.22;;;;;;;;;;5042382;28;20029;-60
2022/07/30 00:07:31;;;;;;;4.20;3.95;;;;;;;;;;5024187;28;20479;-60
2022/07/30 00:09:56;;;;;;;4.95;4.57;;;;;;;;;;5041651;28;20025;-60
2022/07/30 00:12:22;;;;;;;4.70;4.40;;;;;;;;;;5042220;28;20107;-60
2022/07/30 00:14:47;;;;;;;4.22;3.75;;;;;;;;;;5042609;28;20036;-60
2022/07/30 00:17:12;;;;;;;3.08;2.92;;;;;;;;;;5043620;28;20029;-62
2022/07/30 00:19:37;;;;;;;3.13;2.80;;;;;;;;;;5023099;28;20037;-61
2022/07/30 00:22:03;;;;;;;2.63;2.53;;;;;;;;;;5043437;28;20120;-65
2022/07/30 00:24:28;;;;;;;2.90;2.78;;;;;;;;;;5043322;28;20029;-61
2022/07/30 00:26:53;;;;;;;3.17;2.60;;;;;;;;;;5044413;28;20036;-61
2022/07/30 00:29:18;;;;;;;2.30;2.20;;;;;;;;;;5045114;28;20226;-60
2022/07/30 00:31:44;;;;;;;1.88;1.77;;;;;;;;;;5047722;28;20492;-61
2022/07/30 00:34:10;;;;;;;2.30;2.10;;;;;;;;;;5026612;28;20520;-61
2022/07/30 00:36:35;;;;;;;3.92;1.90;;;;;;;;;;5042395;28;20036;-61
2022/07/30 00:39:01;;;;;;;2.47;2.20;;;;;;;;;;5043774;28;20028;-61
2022/07/30 00:41:26;;;;;;;2.08;1.83;;;;;;;;;;5042288;28;20399;-61
2022/07/30 00:43:52;;;;;;;2.15;1.90;;;;;;;;;;5040353;28;20025;-61
2022/07/30 00:46:18;;;;;;;1.95;1.85;;;;;;;;;;5039025;28;20039;-61
2022/07/30 00:48:44;;;;;;;1.75;1.65;;;;;;;;;;5043107;28;20033;-61
2022/07/30 00:51:09;;;;;;;1.60;1.58;;;;;;;;;;5045241;28;20025;-62
2022/07/30 00:53:34;;;;;;;1.77;1.67;;;;;;;;;;5042125;28;20464;-62
2022/07/30 00:56:00;;;;;;;1.58;1.58;;;;;;;;;;5039129;28;20020;-61
2022/07/30 00:58:25;;;;;;;1.60;1.50;;;;;;;;;;5043533;28;20080;-61
2022/07/30 01:00:50;;;;;;;1.92;1.83;;;;;;;;;;5041601;28;20029;-61
2022/07/30 01:03:16;;;;;;;1.80;1.70;;;;;;;;;;5024691;28;20073;-61
2022/07/30 01:05:41;;;;;;;1.70;1.60;;;;;;;;;;5016655;28;20037;-61
2022/07/30 01:08:06;;;;;;;1.50;1.40;;;;;;;;;;5044957;28;20567;-61
2022/07/30 01:10:31;;;;;;;1.33;1.33;;;;;;;;;;5044304;28;20032;-60
2022/07/30 01:12:58;;;;;;;1.30;1.30;;;;;;;;;;5044370;28;20032;-60
2022/07/30 01:15:24;;;;;;;1.33;1.33;;;;;;;;;;5044276;28;20025;-60
2022/07/30 01:17:50;;;;;;;1.42;1.40;;;;;;;;;;5042011;28;20028;-60
2022/07/30 01:20:27;;;;;;;1.40;1.40;;;;;;;;;;5040266;28;20060;-60
2022/07/30 01:23:03;;;;;;;1.67;1.58;;;;;;;;;;5040963;28;20502;-60
2022/07/30 01:25:47;;;;;;;1.60;1.50;;;;;;;;;;5042499;28;20132;-60
2022/07/30 01:28:14;;;;;;;1.80;1.70;;;;;;;;;;5040061;28;20025;-61
2022/07/30 01:30:41;;;;;;;2.20;1.67;;;;;;;;;;5041041;28;20025;-60
2022/07/30 01:33:08;;;;;;;1.98;1.80;;;;;;;;;;5042610;28;20036;-61
2022/07/30 01:35:34;;;;;;;2.08;1.90;;;;;;;;;;5043281;28;20391;-60
2022/07/30 01:38:00;;;;;;;2.55;2.00;;;;;;;;;;5042281;28;20021;-60
2022/07/30 01:40:26;;;;;;;1.95;1.85;;;;;;;;;;5039624;28;20126;-61
2022/07/30 01:42:54;;;;;;;2.00;1.70;;;;;;;;;;5041803;28;20147;-60
2022/07/30 01:45:21;;;;;;;1.70;1.70;;;;;;;;;;5042391;28;20025;-60
2022/07/30 01:47:46;;;;;;;2.13;2.03;;;;;;;;;;5044316;28;20075;-61
2022/07/30 01:50:13;;;;;;;3.25;3.03;;;;;;;;;;5040877;28;20566;-61
2022/07/30 01:52:40;;;;;;;2.60;2.50;;;;;;;;;;5039546;28;20025;-60
2022/07/30 01:55:06;;;;;;;2.63;2.53;;;;;;;;;;5022861;28;20029;-60
2022/07/30 01:57:34;;;;;;;2.75;2.60;;;;;;;;;;5042671;28;20028;-61
2022/07/30 02:00:01;;;;;;;4.60;3.15;;;;;;;;;;5043098;28;20048;-61
2022/07/30 02:02:26;;;;;;;2.33;2.22;;;;;;;;;;5040346;28;20490;-60
2022/07/30 02:04:52;;;;;;;2.55;2.45;;;;;;;;;;5040340;28;20025;-61
2022/07/30 02:07:20;;;;;;;2.70;2.50;;;;;;;;;;5042084;28;20507;-61
2022/07/30 02:09:50;;;;;;;2.80;2.70;;;;;;;;;;5043784;28;20021;-60
2022/07/30 02:12:28;;;;;;;2.58;2.47;;;;;;;;;;5046673;28;20024;-61
2022/07/30 02:14:56;;;;;;;3.28;3.08;;;;;;;;;;5047071;28;20108;-60
2022/07/30 02:17:23;;;;;;;3.75;3.47;;;;;;;;;;5047813;28;20115;-60
2022/07/30 02:19:53;;;;;;;3.13;2.92;;;;;;;;;;5044774;28;20033;-60
2022/07/30 02:22:19;;;;;;;3.30;2.90;;;;;;;;;;5045508;28;20029;-60
2022/07/30 02:24:46;;;;;;;3.47;3.25;;;;;;;;;;5043235;28;20060;-60
2022/07/30 02:27:15;;;;;;;2.70;2.60;;;;;;;;;;5047372;28;20037;-60
2022/07/30 02:29:41;;;;;;;3.90;2.83;;;;;;;;;;5046938;28;20059;-60
2022/07/30 02:32:11;;;;;;;3.38;3.17;;;;;;;;;;5047214;28;20096;-60
2022/07/30 02:34:38;;;;;;;2.58;2.47;;;;;;;;;;5046202;28;20035;-60
2022/07/30 02:37:04;;;;;;;3.13;2.72;;;;;;;;;;5047764;28;20028;-60
2022/07/30 02:39:32;;;;;;;3.40;3.20;;;;;;;;;;5045447;28;20455;-60
2022/07/30 02:41:58;;;;;;;3.00;2.90;;;;;;;;;;5016413;28;20510;-60
2022/07/30 02:44:23;;;;;;;3.33;3.13;;;;;;;;;;5045550;28;20573;-61
2022/07/30 02:46:50;;;;;;;3.20;3.00;;;;;;;;;;5047572;28;20429;-61
2022/07/30 02:49:16;;;;;;;3.15;2.95;;;;;;;;;;5047588;28;20048;-61
2022/07/30 02:51:41;;;;;;;3.65;3.33;;;;;;;;;;5044533;28;20033;-61
2022/07/30 02:54:07;;;;;;;3.45;3.20;;;;;;;;;;5042324;28;20028;-60
2022/07/30 02:56:33;;;;;;;3.40;3.10;;;;;;;;;;5044399;28;20383;-61
2022/07/30 02:59:00;;;;;;;3.13;2.88;;;;;;;;;;5045669;28;20025;-61
2022/07/30 03:01:25;;;;;;;2.95;2.75;;;;;;;;;;5047131;28;20033;-61
2022/07/30 03:03:51;;;;;;;3.78;3.42;;;;;;;;;;5046145;28;20043;-60
2022/07/30 03:06:17;;;;;;;3.22;3.03;;;;;;;;;;5047470;28;20448;-61
2022/07/30 03:08:43;;;;;;;3.25;3.05;;;;;;;;;;5046008;28;20692;-61
2022/07/30 03:11:09;;;;;;;4.00;3.70;;;;;;;;;;5045961;28;20036;-60
2022/07/30 03:13:35;;;;;;;3.55;3.25;;;;;;;;;;5042758;28;20032;-61
2022/07/30 03:16:02;;;;;;;4.57;3.53;;;;;;;;;;5044224;28;20025;-61
2022/07/30 03:18:31;;;;;;;4.03;3.67;;;;;;;;;;5044681;28;20028;-61
2022/07/30 03:20:57;;;;;;;4.65;4.20;;;;;;;;;;5045633;28;20464;-61
2022/07/30 03:23:24;;;;;;;6.82;4.68;;;;;;;;;;5043080;28;20114;-61
2022/07/30 03:26:07;;;;;;;5.38;4.88;;;;;;;;;;5026443;28;20040;-61
2022/07/30 03:28:35;;;;;;;8.65;5.50;;;;;;;;;;5046605;28;20023;-61
2022/07/30 03:31:01;;;;;;;6.35;5.85;;;;;;;;;;5046155;28;20017;-60
2022/07/30 03:33:27;;;;;;;5.97;5.47;;;;;;;;;;5046015;28;20028;-60
2022/07/30 03:35:53;;;;;;;6.68;6.07;;;;;;;;;;5042879;28;20029;-61
2022/07/30 03:38:20;;;;;;;5.80;5.40;;;;;;;;;;5046790;28;20059;-59
2022/07/30 03:40:45;;;;;;;6.35;5.85;;;;;;;;;;5045145;28;20065;-61
2022/07/30 03:43:11;;;;;;;6.50;6.00;;;;;;;;;;5045336;28;20094;-61
2022/07/30 03:45:37;;;;;;;6.10;5.57;;;;;;;;;;5045013;28;20044;-61
2022/07/30 03:48:03;;;;;;;11.48;5.97;;;;;;;;;;5046408;28;20025;-60
2022/07/30 03:50:29;;;;;;;6.40;5.90;;;;;;;;;;5043280;28;20479;-59
2022/07/30 03:52:55;;;;;;;6.43;5.82;;;;;;;;;;5043039;28;20028;-60
2022/07/30 03:55:20;;;;;;;7.50;6.90;;;;;;;;;;5044892;28;20059;-62
2022/07/30 03:57:46;;;;;;;6.95;6.22;;;;;;;;;;5045951;28;20605;-61
2022/07/30 04:00:13;;;;;;;6.18;5.78;;;;;;;;;;5044447;28;20025;-61
2022/07/30 04:02:45;;;;;;;6.68;6.05;;;;;;;;;;5027735;28;20082;-61
2022/07/30 04:05:14;;;;;;;7.03;6.43;;;;;;;;;;5045951;28;20033;-60
2022/07/30 04:07:39;;;;;;;6.05;5.65;;;;;;;;;;5045566;28;20507;-60
2022/07/30 04:10:05;;;;;;;6.78;5.45;;;;;;;;;;5046151;28;20070;-61
2022/07/30 04:12:30;;;;;;;7.72;7.00;;;;;;;;;;5043572;28;20526;-60
2022/07/30 04:14:56;;;;;;;8.52;6.82;;;;;;;;;;5046082;28;20056;-60
2022/07/30 04:17:27;;;;;;;7.28;6.68;;;;;;;;;;5027437;28;20037;-61
2022/07/30 04:19:56;;;;;;;6.00;5.50;;;;;;;;;;5045167;28;20028;-61
2022/07/30 04:22:30;;;;;;;6.25;5.70;;;;;;;;;;5044964;28;20033;-60
2022/07/30 04:24:56;;;;;;;6.55;5.95;;;;;;;;;;5034101;28;20025;-60
2022/07/30 04:27:24;;;;;;;6.40;5.90;;;;;;;;;;5044745;28;20477;-60
2022/07/30 04:29:49;;;;;;;6.05;5.55;;;;;;;;;;5044363;28;20108;-61
2022/07/30 04:32:15;;;;;;;5.80;5.40;;;;;;;;;;5043936;28;20095;-60
2022/07/30 04:34:50;;;;;;;5.88;5.45;;;;;;;;;;5044748;28;20032;-60
2022/07/30 04:37:16;;;;;;;6.07;5.40;;;;;;;;;;5044982;28;20021;-61
2022/07/30 04:39:41;;;;;;;5.53;5.13;;;;;;;;;;5044684;28;20037;-61
2022/07/30 04:42:07;;;;;;;5.32;4.93;;;;;;;;;;5042973;28;20059;-60
2022/07/30 04:44:33;;;;;;;5.03;4.60;;;;;;;;;;5027537;28;20394;-61
2022/07/30 04:46:58;;;;;;;4.53;4.13;;;;;;;;;;5044852;28;20044;-61
2022/07/30 04:49:24;;;;;;;4.95;4.55;;;;;;;;;;5044581;28;20397;-63
2022/07/30 04:51:49;;;;;;;4.38;4.07;;;;;;;;;;5044864;28;20039;-60
2022/07/30 04:54:15;;;;;;;4.30;4.00;;;;;;;;;;5044247;28;20131;-61
2022/07/30 04:56:40;;;;;;;4.68;4.38;;;;;;;;;;5024569;28;20024;-60
2022/07/30 04:59:06;;;;;;;4.03;3.80;;;;;;;;;;5026924;28;20033;-64
2022/07/30 05:01:36;;;;;;;4.35;4.15;;;;;;;;;;5044186;28;20037;-61
2022/07/30 05:04:02;;;;;;;5.50;4.50;;;;;;;;;;5043869;28;20100;-61
2022/07/30 05:06:27;;;;;;;4.45;4.25;;;;;;;;;;5042104;28;20039;-60
2022/07/30 05:08:53;;;;;;;4.45;4.05;;;;;;;;;;5039558;28;20021;-61
2022/07/30 05:11:18;;;;;;;4.53;4.13;;;;;;;;;;5042471;28;20155;-60
2022/07/30 05:13:47;;;;;;;4.90;4.40;;;;;;;;;;5040323;28;20057;-62
2022/07/30 05:16:12;;;;;;;5.03;4.63;;;;;;;;;;5031328;28;20035;-61
2022/07/30 05:18:38;;;;;;;5.50;5.07;;;;;;;;;;5038487;28;20033;-60
2022/07/30 05:21:03;;;;;;;5.28;4.97;;;;;;;;;;5039533;28;20063;-60
2022/07/30 05:23:28;;;;;;;5.82;5.43;;;;;;;;;;5040053;28;20985;-60
2022/07/30 05:25:54;;;;;;;6.95;5.65;;;;;;;;;;5037421;28;20029;-61
2022/07/30 05:28:19;;;;;;;4.85;4.55;;;;;;;;;;5037787;28;20416;-60
2022/07/30 05:30:44;;;;;;;4.68;4.35;;;;;;;;;;5039581;28;20407;-61
2022/07/30 05:33:09;;;;;;;6.20;5.70;;;;;;;;;;5040708;28;20502;-60
2022/07/30 05:35:34;;;;;;;6.78;6.25;;;;;;;;;;5040777;28;20595;-59
2022/07/30 05:38:00;;;;;;;5.93;5.47;;;;;;;;;;5039179;28;20496;-60
2022/07/30 05:40:25;;;;;;;6.43;5.93;;;;;;;;;;5037286;28;20679;-62
2022/07/30 05:42:50;;;;;;;5.20;4.70;;;;;;;;;;5019968;28;20548;-60
2022/07/30 05:45:16;;;;;;;4.47;4.07;;;;;;;;;;5041275;28;20021;-61
2022/07/30 05:47:41;;;;;;;5.20;4.80;;;;;;;;;;5042891;28;20562;-60
2022/07/30 05:50:06;;;;;;;5.82;4.40;;;;;;;;;;5045281;28;20037;-60
2022/07/30 05:52:32;;;;;;;4.65;4.30;;;;;;;;;;5043508;28;20045;-60
2022/07/30 05:54:57;;;;;;;7.53;4.60;;;;;;;;;;5041481;28;20025;-60
2022/07/30 05:57:22;;;;;;;5.85;5.45;;;;;;;;;;5043605;28;20029;-61
2022/07/30 05:59:49;;;;;;;5.05;4.75;;;;;;;;;;5044016;28;20108;-60
2022/07/30 06:02:14;;;;;;;6.15;5.65;;;;;;;;;;5026194;28;20501;-60
2022/07/30 06:04:39;;;;;;;5.88;5.45;;;;;;;;;;5046339;28;20046;-62
2022/07/30 06:07:05;;;;;;;4.82;4.53;;;;;;;;;;5044766;28;20025;-60
2022/07/30 06:09:30;;;;;;;5.65;4.90;;;;;;;;;;5044422;28;20029;-60
2022/07/30 06:11:55;;;;;;;6.72;4.35;;;;;;;;;;5044285;28;20573;-60
2022/07/30 06:14:20;;;;;;;4.68;4.05;;;;;;;;;;5044897;28;20036;-60
2022/07/30 06:16:45;;;;;;;4.47;4.18;;;;;;;;;;5043115;28;20036;-60
2022/07/30 06:19:11;;;;;;;6.22;5.50;;;;;;;;;;5026441;28;20036;-60
2022/07/30 06:21:36;;;;;;;4.72;4.22;;;;;;;;;;5043539;28;20032;-59
2022/07/30 06:24:01;;;;;;;6.38;4.75;;;;;;;;;;5044456;28;20045;-60
2022/07/30 06:26:26;;;;;;;5.03;4.65;;;;;;;;;;5042931;28;20491;-60
2022/07/30 06:28:52;;;;;;;4.05;3.85;;;;;;;;;;5020310;28;20530;-60
2022/07/30 06:31:17;;;;;;;5.00;4.70;;;;;;;;;;5042180;28;20425;-60
2022/07/30 06:33:42;;;;;;;4.75;4.40;;;;;;;;;;5043982;28;20021;-60
2022/07/30 06:36:07;;;;;;;4.30;4.00;;;;;;;;;;5026735;28;20119;-59
2022/07/30 06:38:33;;;;;;;3.97;3.67;;;;;;;;;;5041462;28;20028;-59
2022/07/30 06:40:58;;;;;;;4.72;4.13;;;;;;;;;;5022760;28;20061;-60
2022/07/30 06:43:23;;;;;;;4.47;4.07;;;;;;;;;;5023586;28;20025;-60
2022/07/30 06:45:48;;;;;;;3.95;3.65;;;;;;;;;;5024103;28;20025;-59
2022/07/30 06:48:14;;;;;;;3.50;3.30;;;;;;;;;;5018599;28;20021;-60
2022/07/30 06:50:42;;;;;;;4.57;4.18;;;;;;;;;;5022756;28;20025;-60
2022/07/30 06:53:07;;;;;;;3.90;3.70;;;;;;;;;;5023247;28;20021;-60
2022/07/30 06:55:32;;;;;;;4.13;3.80;;;;;;;;;;5023068;28;20379;-60
2022/07/30 06:57:58;;;;;;;4.18;3.85;;;;;;;;;;5022638;28;20144;-60
2022/07/30 07:00:24;;;;;;;3.20;3.00;;;;;;;;;;5025687;28;20097;-59
2022/07/30 07:02:49;;;;;;;4.18;3.88;;;;;;;;;;5026780;28;20021;-60
2022/07/30 07:05:14;;;;;;;2.88;2.75;;;;;;;;;;5026152;28;20361;-59
2022/07/30 07:07:39;;;;;;;2.67;2.47;;;;;;;;;;5023049;28;20025;-59
2022/07/30 07:10:05;;;;;;;3.05;2.85;;;;;;;;;;5025310;28;20040;-60
2022/07/30 07:12:30;;;;;;;2.53;2.42;;;;;;;;;;5023874;28;20021;-59
2022/07/30 07:14:55;;;;;;;3.38;3.08;;;;;;;;;;5021754;28;20107;-60
2022/07/30 07:17:21;;;;;;;3.42;3.15;;;;;;;;;;5021460;28;20618;-61
2022/07/30 07:19:46;;;;;;;3.08;2.90;;;;;;;;;;5020933;28;20040;-60
2022/07/30 07:22:11;;;;;;;2.97;2.67;;;;;;;;;;5021674;28;20033;-60
2022/07/30 07:24:37;;;;;;;3.80;2.38;;;;;;;;;;5024195;28;20514;-60
2022/07/30 07:27:02;;;;;;;2.97;2.78;;;;;;;;;;5023196;28;20017;-60
2022/07/30 07:29:27;;;;;;;4.28;3.00;;;;;;;;;;5018875;28;20034;-60
2022/07/30 07:31:52;;;;;;;3.35;3.05;;;;;;;;;;5021645;28;20030;-60
2022/07/30 07:34:18;;;;;;;3.40;3.20;;;;;;;;;;5020044;28;20459;-60
2022/07/30 07:36:43;;;;;;;3.08;2.88;;;;;;;;;;5023498;28;20431;-60
2022/07/30 07:39:08;;;;;;;3.08;2.88;;;;;;;;;;5019705;28;20379;-60
2022/07/30 07:41:34;;;;;;;2.55;2.45;;;;;;;;;;5036215;28;20477;-60
2022/07/30 07:44:00;;;;;;;4.13;3.25;;;;;;;;;;5024948;28;20383;-60
2022/07/30 07:46:26;;;;;;;3.45;3.25;;;;;;;;;;5037720;28;20033;-62
2022/07/30 07:48:51;;;;;;;3.10;2.90;;;;;;;;;;5039056;28;20043;-61
2022/07/30 07:51:17;;;;;;;3.30;3.10;;;;;;;;;;5023379;28;20491;-61
2022/07/30 07:53:42;;;;;;;3.22;2.92;;;;;;;;;;5043942;28;20032;-60
2022/07/30 07:56:07;;;;;;;3.15;3.05;;;;;;;;;;5025042;28;20017;-60
2022/07/30 07:58:32;;;;;;;3.33;3.13;;;;;;;;;;5039105;28;20100;-60
2022/07/30 08:00:58;;;;;;;3.40;3.20;;;;;;;;;;5041894;28;20033;-60
2022/07/30 08:03:23;;;;;;;3.45;3.17;;;;;;;;;;5038986;28;20443;-61
2022/07/30 08:05:48;;;;;;;4.03;3.78;;;;;;;;;;5042768;28;20540;-60
2022/07/30 08:08:13;;;;;;;4.00;3.80;;;;;;;;;;5041534;28;20032;-60
2022/07/30 08:10:39;;;;;;;4.43;4.03;;;;;;;;;;5040316;28;20037;-60
2022/07/30 08:13:04;;;;;;;3.30;3.10;;;;;;;;;;5032726;28;20027;-60
2022/07/30 08:15:30;;;;;;;3.67;3.47;;;;;;;;;;5045327;28;20028;-62
2022/07/30 08:17:56;;;;;;;3.40;3.20;;;;;;;;;;5044936;28;20403;-61
2022/07/30 08:20:21;;;;;;;3.33;3.08;;;;;;;;;;5044699;28;20116;-61
2022/07/30 08:22:46;;;;;;;3.53;3.33;;;;;;;;;;5027344;28;20422;-59
2022/07/30 08:25:12;;;;;;;3.80;3.22;;;;;;;;;;5026641;28;20418;-60
2022/07/30 08:27:37;;;;;;;3.78;3.55;;;;;;;;;;5042179;28;20471;-59
2022/07/30 08:30:07;;;;;;;3.33;3.10;;;;;;;;;;5024435;28;20053;-60
2022/07/30 08:32:32;;;;;;;5.78;3.85;;;;;;;;;;5024808;28;20025;-60
2022/07/30 08:34:57;;;;;;;3.17;2.97;;;;;;;;;;5045236;28;20360;-60
2022/07/30 08:37:22;;;;;;;4.28;3.97;;;;;;;;;;5043357;28;20506;-60
2022/07/30 08:39:48;;;;;;;3.45;3.25;;;;;;;;;;5041034;28;20036;-60
2022/07/30 08:42:13;;;;;;;4.18;3.88;;;;;;;;;;5043916;28;20057;-60
2022/07/30 08:44:39;;;;;;;3.90;3.65;;;;;;;;;;5041783;28;20025;-60
2022/07/30 08:47:05;;;;;;;3.70;3.50;;;;;;;;;;5042611;28;20044;-60
2022/07/30 08:49:30;;;;;;;4.57;4.18;;;;;;;;;;5044014;28;20124;-60
2022/07/30 08:51:56;;;;;;;4.93;4.55;;;;;;;;;;5043421;28;20033;-60
2022/07/30 08:54:21;;;;;;;5.03;4.50;;;;;;;;;;5023625;28;20181;-60
2022/07/30 08:56:49;;;;;;;5.60;4.80;;;;;;;;;;5024022;28;20017;-60
2022/07/30 08:59:18;;;;;;;4.57;4.18;;;;;;;;;;5041970;28;20082;-60
2022/07/30 09:01:43;;;;;;;5.60;5.25;;;;;;;;;;5041702;28;20037;-60
2022/07/30 09:04:09;;;;;;;4.50;4.30;;;;;;;;;;5042404;28;20584;-60
2022/07/30 09:06:35;;;;;;;6.32;5.72;;;;;;;;;;5043534;28;20117;-60
2022/07/30 09:09:00;;;;;;;6.78;6.15;;;;;;;;;;5043089;28;20458;-60
2022/07/30 09:11:25;;;;;;;6.10;5.60;;;;;;;;;;5043049;28;20104;-59
2022/07/30 09:13:51;;;;;;;5.40;5.00;;;;;;;;;;5023459;28;20144;-62
2022/07/30 09:16:20;;;;;;;4.88;4.47;;;;;;;;;;5039803;28;20480;-60
2022/07/30 09:18:45;;;;;;;5.35;4.90;;;;;;;;;;5040421;28;20103;-59
2022/07/30 09:21:14;;;;;;;5.38;4.82;;;;;;;;;;5013635;28;20540;-60
2022/07/30 09:23:39;;;;;;;5.25;4.85;;;;;;;;;;5040557;28;20028;-60
2022/07/30 09:26:04;;;;;;;5.55;5.18;;;;;;;;;;5042551;28;20021;-60
2022/07/30 09:28:31;;;;;;;5.70;5.20;;;;;;;;;;5040678;28;20063;-66
2022/07/30 09:30:57;;;;;;;7.20;6.30;;;;;;;;;;5040943;28;20052;-61
2022/07/30 09:33:32;;;;;;;5.78;5.32;;;;;;;;;;5040214;28;20113;-60
2022/07/30 09:35:57;;;;;;;5.70;5.25;;;;;;;;;;5037969;28;20031;-61
2022/07/30 09:38:22;;;;;;;6.50;5.75;;;;;;;;;;5035821;28;20175;-61
2022/07/30 09:40:51;;;;;;;5.45;4.97;;;;;;;;;;5035980;28;20057;-61
2022/07/30 09:43:18;;;;;;;6.55;5.38;;;;;;;;;;5043260;28;20407;-61
2022/07/30 09:45:50;;;;;;;6.18;5.70;;;;;;;;;;5044332;28;20045;-64
2022/07/30 09:48:26;;;;;;;6.15;5.50;;;;;;;;;;5042164;28;20032;-60
2022/07/30 09:50:51;;;;;;;6.43;6.00;;;;;;;;;;5040800;28;20032;-61
2022/07/30 09:53:17;;;;;;;6.38;5.53;;;;;;;;;;5043140;28;20455;-63
2022/07/30 09:55:43;;;;;;;5.70;5.20;;;;;;;;;;5044371;28;20101;-61
2022/07/30 09:58:09;;;;;;;6.53;5.82;;;;;;;;;;5040548;28;20081;-60
2022/07/30 10:00:35;;;;;;;6.50;5.72;;;;;;;;;;5040732;28;20464;-61
2022/07/30 10:03:12;;;;;;;5.47;4.97;;;;;;;;;;5041030;28;20025;-61
2022/07/30 10:05:38;;;;;;;6.07;5.57;;;;;;;;;;5043775;28;20297;-60
2022/07/30 10:08:05;;;;;;;5.18;4.78;;;;;;;;;;5043387;28;20031;-61
2022/07/30 10:10:30;;;;;;;5.63;5.22;;;;;;;;;;5039953;28;20063;-61
2022/07/30 10:13:00;;;;;;;5.85;5.35;;;;;;;;;;5012554;28;20139;-61
2022/07/30 10:15:29;;;;;;;5.82;5.32;;;;;;;;;;5013621;28;20029;-61
2022/07/30 10:17:55;;;;;;;7.15;5.18;;;;;;;;;;5038936;28;20039;-62
2022/07/30 10:20:21;;;;;;;5.97;5.47;;;;;;;;;;5036971;28;20474;-60
2022/07/30 10:22:46;;;;;;;5.40;4.90;;;;;;;;;;5038254;28;20037;-61
2022/07/30 10:25:12;;;;;;;6.03;5.63;;;;;;;;;;5037261;28;20462;-60
2022/07/30 10:27:38;;;;;;;5.53;5.13;;;;;;;;;;5038630;28;20111;-60
2022/07/30 10:30:03;;;;;;;6.20;5.68;;;;;;;;;;5039590;28;20053;-60
2022/07/30 10:32:30;;;;;;;5.57;5.07;;;;;;;;;;5037212;28;20056;-60
2022/07/30 10:34:55;;;;;;;6.30;5.80;;;;;;;;;;5034562;28;20020;-61
2022/07/30 10:37:21;;;;;;;5.85;5.35;;;;;;;;;;5039431;28;20589;-60
2022/07/30 10:39:55;;;;;;;6.30;5.80;;;;;;;;;;5037928;28;20112;-60
2022/07/30 10:42:20;;;;;;;4.90;4.50;;;;;;;;;;5040960;28;20134;-61
2022/07/30 10:44:51;;;;;;;5.45;5.05;;;;;;;;;;5040191;28;20042;-61
2022/07/30 10:47:18;;;;;;;5.97;5.50;;;;;;;;;;5045314;28;20464;-61
2022/07/30 10:50:02;;;;;;;6.72;6.15;;;;;;;;;;5042848;28;20025;-61
2022/07/30 10:52:42;;;;;;;5.72;5.25;;;;;;;;;;5043951;28;20024;-62
2022/07/30 10:55:11;;;;;;;5.68;5.28;;;;;;;;;;5042106;28;20112;-62
2022/07/30 10:57:55;;;;;;;6.57;5.97;;;;;;;;;;5025395;28;20417;-62
2022/07/30 11:00:20;;;;;;;7.75;5.35;;;;;;;;;;5036892;28;20037;-61
2022/07/30 11:03:05;;;;;;;5.38;5.07;;;;;;;;;;5041838;28;20458;-64
2022/07/30 11:05:31;;;;;;;;;;;;;;;;;;5045129;28;20356;-62
2022/07/30 11:08:16;;;;;;;5.13;4.82;;;;;;;;;;5043882;28;19912;-63
2022/07/30 11:10:41;;;;;;;6.30;5.68;;;;;;;;;;5043775;28;20111;-63
2022/07/30 11:13:07;;;;;;;5.18;4.78;;;;;;;;;;5045961;28;20039;-62
2022/07/30 11:15:50;;;;;;;5.47;5.00;;;;;;;;;;5046706;28;20031;-63
2022/07/30 11:18:16;;;;;;;5.60;5.10;;;;;;;;;;5043874;28;20487;-63
2022/07/30 11:20:41;;;;;;;7.65;5.13;;;;;;;;;;5044236;28;20136;-63
2022/07/30 11:23:08;;;;;;;5.43;5.07;;;;;;;;;;5041588;28;20132;-62
2022/07/30 11:25:33;;;;;;;6.10;5.45;;;;;;;;;;5044103;28;20032;-63
2022/07/30 11:27:59;;;;;;;5.65;5.25;;;;;;;;;;5021920;28;20021;-62
2022/07/30 11:30:27;;;;;;;5.70;5.32;;;;;;;;;;5025857;28;20368;-63
2022/07/30 11:33:13;;;;;;;5.55;5.15;;;;;;;;;;5042493;28;20546;-62
2022/07/30 11:35:38;;;;;;;;;;;;;;;;;;5043688;28;20087;-63
2022/07/30 11:38:18;;;;;;;5.00;4.60;;;;;;;;;;5041316;28;19916;-62
2022/07/30 11:40:44;;;;;;;6.30;5.47;;;;;;;;;;5042355;28;20061;-62
2022/07/30 11:43:31;;;;;;;6.40;5.90;;;;;;;;;;5039955;28;20025;-62
2022/07/30 11:46:21;;;;;;;5.80;5.40;;;;;;;;;;5042302;28;20063;-63
2022/07/30 11:48:56;;;;;;;5.07;4.68;;;;;;;;;;5039862;28;20025;-62
2022/07/30 11:51:21;;;;;;;4.72;4.43;;;;;;;;;;5021866;28;20535;-62
2022/07/30 11:54:00;;;;;;;5.30;4.90;;;;;;;;;;5033495;28;20124;-62
2022/07/30 11:56:25;;;;;;;4.72;4.43;;;;;;;;;;5041441;28;20035;-62
2022/07/30 11:58:59;;;;;;;5.72;5.22;;;;;;;;;;5024145;28;20467;-62
2022/07/30 12:01:24;;;;;;;5.55;5.10;;;;;;;;;;5041695;28;20338;-62
2022/07/30 12:03:49;;;;;;;5.68;5.28;;;;;;;;;;5017572;28;20044;-62
2022/07/30 12:06:18;;;;;;;4.88;4.57;;;;;;;;;;5037432;28;20367;-62
2022/07/30 12:08:48;;;;;;;5.53;5.13;;;;;;;;;;5021501;28;20062;-61
2022/07/30 12:11:14;;;;;;;5.20;4.90;;;;;;;;;;5045047;28;20033;-61
2022/07/30 12:13:40;;;;;;;5.55;5.15;;;;;;;;;;5043977;28;20036;-62
2022/07/30 12:16:13;;;;;;;6.00;5.50;;;;;;;;;;5045066;28;20033;-62
2022/07/30 12:18:38;;;;;;;4.82;4.53;;;;;;;;;;5045501;28;20324;-62
2022/07/30 12:21:10;;;;;;;5.40;5.00;;;;;;;;;;5045742;28;20549;-62
2022/07/30 12:23:36;;;;;;;4.97;4.53;;;;;;;;;;5042333;28;20037;-62
2022/07/30 12:26:03;;;;;;;5.35;4.95;;;;;;;;;;5024571;28;20051;-62
2022/07/30 12:28:30;;;;;;;5.53;5.22;;;;;;;;;;5043206;28;20037;-62
2022/07/30 12:30:56;;;;;;;5.10;4.70;;;;;;;;;;5045261;28;20112;-61
2022/07/30 12:33:24;;;;;;;5.13;4.72;;;;;;;;;;5027029;28;20039;-62
2022/07/30 12:35:49;;;;;;;5.22;4.85;;;;;;;;;;5044492;28;20106;-61
2022/07/30 12:38:15;;;;;;;5.18;4.78;;;;;;;;;;5027335;28;20083;-62
2022/07/30 12:40:50;;;;;;;5.97;5.47;;;;;;;;;;5044475;28;20048;-62
2022/07/30 12:43:15;;;;;;;4.90;4.47;;;;;;;;;;5039760;28;20113;-61
2022/07/30 12:45:41;;;;;;;5.07;4.78;;;;;;;;;;5041118;28;20443;-61
2022/07/30 12:48:10;;;;;;;5.22;4.82;;;;;;;;;;5042468;28;20024;-61
2022/07/30 12:50:35;;;;;;;5.53;5.00;;;;;;;;;;5040990;28;20182;-62
2022/07/30 12:53:00;;;;;;;5.15;4.75;;;;;;;;;;5040481;28;20063;-61
2022/07/30 12:55:32;;;;;;;5.13;4.57;;;;;;;;;;5041935;28;20415;-61
2022/07/30 12:58:07;;;;;;;4.90;4.50;;;;;;;;;;5041191;28;20028;-61
2022/07/30 13:00:51;;;;;;;4.63;4.20;;;;;;;;;;5039210;28;20551;-62
2022/07/30 13:03:24;;;;;;;5.77;4.03;;;;;;;;;;5024692;28;20392;-61
2022/07/30 13:05:50;;;;;;;4.75;4.35;;;;;;;;;;5044501;28;20772;-61
2022/07/30 13:08:16;;;;;;;5.38;4.93;;;;;;;;;;5044582;28;20021;-62
2022/07/30 13:10:54;;;;;;;5.07;4.68;;;;;;;;;;5045102;28;20402;-61
2022/07/30 13:13:19;;;;;;;4.93;4.53;;;;;;;;;;5044342;28;20051;-61
2022/07/30 13:15:55;;;;;;;5.10;4.72;;;;;;;;;;5043027;28;20487;-62
2022/07/30 13:18:20;;;;;;;5.18;4.88;;;;;;;;;;5043765;28;20020;-62
2022/07/30 13:20:47;;;;;;;5.55;4.85;;;;;;;;;;5043168;28;20409;-61
2022/07/30 13:23:12;;;;;;;5.75;5.25;;;;;;;;;;5043988;28;20474;-61
2022/07/30 13:25:37;;;;;;;5.20;4.90;;;;;;;;;;5041152;28;20037;-61
2022/07/30 13:28:03;;;;;;;5.28;4.80;;;;;;;;;;5007483;28;20374;-61
2022/07/30 13:30:28;;;;;;;4.82;4.53;;;;;;;;;;5038459;28;20033;-61
2022/07/30 13:32:53;;;;;;;6.07;5.55;;;;;;;;;;5023830;28;20029;-61
2022/07/30 13:35:19;;;;;;;5.72;5.00;;;;;;;;;;5037436;28;20021;-61
2022/07/30 13:37:44;;;;;;;5.35;4.95;;;;;;;;;;5004404;28;20033;-61
2022/07/30 13:40:09;;;;;;;5.97;5.35;;;;;;;;;;5042279;28;20033;-61
2022/07/30 13:42:34;;;;;;;5.95;5.35;;;;;;;;;;5044896;28;20025;-60
2022/07/30 13:45:00;;;;;;;5.28;4.97;;;;;;;;;;5036513;28;20103;-60
2022/07/30 13:47:25;;;;;;;6.38;5.10;;;;;;;;;;5023246;28;20464;-62
2022/07/30 13:49:50;;;;;;;5.63;5.15;;;;;;;;;;5041352;28;20136;-61
2022/07/30 13:52:15;;;;;;;5.88;5.38;;;;;;;;;;5038151;28;20060;-63
2022/07/30 13:54:42;;;;;;;5.38;4.97;;;;;;;;;;5020934;28;20037;-61
2022/07/30 13:57:07;;;;;;;5.45;5.05;;;;;;;;;;5044222;28;20464;-60
2022/07/30 13:59:32;;;;;;;5.45;5.05;;;;;;;;;;5042847;28;20527;-62
2022/07/30 14:01:59;;;;;;;5.38;5.00;;;;;;;;;;5038287;28;20103;-61
2022/07/30 14:04:24;;;;;;;5.55;5.05;;;;;;;;;;5033541;28;20065;-62
2022/07/30 14:06:50;;;;;;;5.55;5.15;;;;;;;;;;5039891;28;20033;-61
2022/07/30 14:09:15;;;;;;;5.63;5.22;;;;;;;;;;5041201;28;20071;-61
2022/07/30 14:11:41;;;;;;;4.90;4.70;;;;;;;;;;5040206;28;20029;-61
2022/07/30 14:14:06;;;;;;;5.15;4.75;;;;;;;;;;5037641;28;20363;-61
2022/07/30 14:16:31;;;;;;;6.32;5.75;;;;;;;;;;5040476;28;20377;-61
2022/07/30 14:18:56;;;;;;;6.47;4.82;;;;;;;;;;5038778;28;20044;-61
2022/07/30 14:21:22;;;;;;;6.13;5.72;;;;;;;;;;5036332;28;20033;-60
2022/07/30 14:23:47;;;;;;;5.05;4.75;;;;;;;;;;5006681;28;20340;-61
2022/07/30 14:26:12;;;;;;;5.45;5.05;;;;;;;;;;5046083;28;20033;-61
2022/07/30 14:28:38;;;;;;;6.20;4.90;;;;;;;;;;5029459;28;20029;-61
2022/07/30 14:31:04;;;;;;;5.90;5.25;;;;;;;;;;5045326;28;20375;-61
2022/07/30 14:33:29;;;;;;;5.55;4.80;;;;;;;;;;5044696;28;20025;-62
2022/07/30 14:35:54;;;;;;;5.28;4.88;;;;;;;;;;5046813;28;20592;-61
2022/07/30 14:38:19;;;;;;;5.20;4.80;;;;;;;;;;5046610;28;20029;-61
2022/07/30 14:40:45;;;;;;;6.75;6.18;;;;;;;;;;5045952;28;20491;-61